PWSweather.com
Personal Weather Stations
Station Observations
KMIEASTT1
Tawas Bay, East Tawas, MI 48730

Tawas BayEast Tawas, MI 48730

Lat: 44.28, Lon: -83.48

Elevation: 600

Station Type: Davis VantagePro

http://www.tawasbayweather.com

High Low Average
Temperature 38.5°F3.6°C 32.9°F0.5°C 36.7°F2.6°C
Dew Point 36.9°F2.7°C 31.6°F-0.2°C 34.8°F1.6°C
Winds 3.0 mph 4.8 kmh Calm Calm 1.0 mph SSE1.6 kmh SSE
Wind Gusts 8.0 mph12.9 kmh 1.0 mph1.6 kmh 3.0 mph4.8 kmh
Humidity 96% 89% 93%
Pressure 29.60 in1002.4 mb 29.33 in993.2 mb -
Precipitation 0.00 in0.0 mm - -
Hour Temp Dew Point Humidity Winds Wind Gusts Pressure Precip Precip Rate Daily Precip Total
12:01 AM 37.2°F2.9°C 35.1°F1.7°C 92% Calm Calm 2.0 mph3.2 kmh 29.60 in1002.4 mb 0.00 in0.0 mm 0.00 in/hr0.0 mm/hr 0.00 in0.0 mm
12:15 AM 37.1°F2.8°C 34.4°F1.3°C 90% 1.0 mph NE1.6 kmh NE 2.0 mph3.2 kmh 29.59 in1002.0 mb 0.00 in0.0 mm 0.00 in/hr0.0 mm/hr 0.00 in0.0 mm
12:30 AM 36.6°F2.6°C 34.0°F1.1°C 90% 1.0 mph NE1.6 kmh NE 2.0 mph3.2 kmh 29.58 in1001.7 mb 0.00 in0.0 mm 0.00 in/hr0.0 mm/hr 0.00 in0.0 mm
12:45 AM 35.9°F2.2°C 33.5°F0.8°C 91% 1.0 mph NE1.6 kmh NE 2.0 mph3.2 kmh 29.58 in1001.7 mb 0.00 in0.0 mm 0.00 in/hr0.0 mm/hr 0.00 in0.0 mm
01:01 AM 36.2°F2.3°C 34.4°F1.3°C 93% 2.0 mph NE3.2 kmh NE 2.0 mph3.2 kmh 29.57 in1001.4 mb 0.00 in0.0 mm 0.00 in/hr0.0 mm/hr 0.00 in0.0 mm
01:15 AM 36.6°F2.6°C 34.5°F1.4°C 92% 1.0 mph NE1.6 kmh NE 1.0 mph1.6 kmh 29.57 in1001.4 mb 0.00 in0.0 mm 0.00 in/hr0.0 mm/hr 0.00 in0.0 mm
01:30 AM 36.8°F2.7°C 34.7°F1.5°C 92% Calm Calm 2.0 mph3.2 kmh 29.56 in1001.0 mb 0.00 in0.0 mm 0.00 in/hr0.0 mm/hr 0.00 in0.0 mm
01:45 AM 36.9°F2.7°C 34.8°F1.6°C 92% Calm Calm 2.0 mph3.2 kmh 29.56 in1001.0 mb 0.00 in0.0 mm 0.00 in/hr0.0 mm/hr 0.00 in0.0 mm
02:01 AM 37.2°F2.9°C 35.1°F1.7°C 92% 2.0 mph ENE3.2 kmh ENE 5.0 mph8.0 kmh 29.56 in1001.0 mb 0.00 in0.0 mm 0.00 in/hr0.0 mm/hr 0.00 in0.0 mm
02:15 AM 37.6°F3.1°C 35.5°F1.9°C 92% 1.0 mph ENE1.6 kmh ENE 6.0 mph9.7 kmh 29.55 in1000.7 mb 0.00 in0.0 mm 0.00 in/hr0.0 mm/hr 0.00 in0.0 mm
02:30 AM 37.9°F3.3°C 35.5°F1.9°C 91% 1.0 mph E1.6 kmh E 5.0 mph8.0 kmh 29.55 in1000.7 mb 0.00 in0.0 mm 0.00 in/hr0.0 mm/hr 0.00 in0.0 mm
02:45 AM 38.0°F3.3°C 35.6°F2.0°C 91% Calm Calm 4.0 mph6.4 kmh 29.55 in1000.7 mb 0.00 in0.0 mm 0.00 in/hr0.0 mm/hr 0.00 in0.0 mm
03:00 AM 38.2°F3.4°C 35.5°F1.9°C 90% 1.0 mph NE1.6 kmh NE 2.0 mph3.2 kmh 29.56 in1001.0 mb 0.00 in0.0 mm 0.00 in/hr0.0 mm/hr 0.00 in0.0 mm
03:30 AM 37.7°F3.2°C 34.8°F1.6°C 89% 1.0 mph N1.6 kmh N 2.0 mph3.2 kmh 29.55 in1000.7 mb 0.00 in0.0 mm 0.00 in/hr0.0 mm/hr 0.00 in0.0 mm
03:45 AM 37.3°F2.9°C 34.6°F1.4°C 90% 1.0 mph N1.6 kmh N 2.0 mph3.2 kmh 29.54 in1000.3 mb 0.00 in0.0 mm 0.00 in/hr0.0 mm/hr 0.00 in0.0 mm
04:00 AM 37.2°F2.9°C 34.5°F1.4°C 90% 1.0 mph N1.6 kmh N 2.0 mph3.2 kmh 29.53 in1000.0 mb 0.00 in0.0 mm 0.00 in/hr0.0 mm/hr 0.00 in0.0 mm
04:15 AM 37.5°F3.1°C 35.1°F1.7°C 91% 1.0 mph N1.6 kmh N 4.0 mph6.4 kmh 29.53 in1000.0 mb 0.00 in0.0 mm 0.00 in/hr0.0 mm/hr 0.00 in0.0 mm
04:30 AM 37.6°F3.1°C 35.2°F1.8°C 91% Calm Calm 2.0 mph3.2 kmh 29.53 in1000.0 mb 0.00 in0.0 mm 0.00 in/hr0.0 mm/hr 0.00 in0.0 mm
04:45 AM 37.5°F3.1°C 35.1°F1.7°C 91% 1.0 mph N1.6 kmh N 2.0 mph3.2 kmh 29.52 in999.7 mb 0.00 in0.0 mm 0.00 in/hr0.0 mm/hr 0.00 in0.0 mm
05:00 AM 37.2°F2.9°C 34.8°F1.6°C 91% 1.0 mph N1.6 kmh N 3.0 mph4.8 kmh 29.51 in999.3 mb 0.00 in0.0 mm 0.00 in/hr0.0 mm/hr 0.00 in0.0 mm
05:15 AM 37.4°F3.0°C 35.0°F1.7°C 91% 1.0 mph NNE1.6 kmh NNE 2.0 mph3.2 kmh 29.51 in999.3 mb 0.00 in0.0 mm 0.00 in/hr0.0 mm/hr 0.00 in0.0 mm
05:30 AM 37.5°F3.1°C 35.1°F1.7°C 91% 1.0 mph N1.6 kmh N 2.0 mph3.2 kmh 29.51 in999.3 mb 0.00 in0.0 mm 0.00 in/hr0.0 mm/hr 0.00 in0.0 mm
05:45 AM 37.8°F3.2°C 35.1°F1.7°C 90% 2.0 mph N3.2 kmh N 2.0 mph3.2 kmh 29.51 in999.3 mb 0.00 in0.0 mm 0.00 in/hr0.0 mm/hr 0.00 in0.0 mm
06:00 AM 37.7°F3.2°C 35.0°F1.7°C 90% 1.0 mph N1.6 kmh N 2.0 mph3.2 kmh 29.51 in999.3 mb 0.00 in0.0 mm 0.00 in/hr0.0 mm/hr 0.00 in0.0 mm
06:15 AM 37.8°F3.2°C 35.1°F1.7°C 90% 1.0 mph N1.6 kmh N 2.0 mph3.2 kmh 29.51 in999.3 mb 0.00 in0.0 mm 0.00 in/hr0.0 mm/hr 0.00 in0.0 mm
06:30 AM 38.0°F3.3°C 35.3°F1.8°C 90% 2.0 mph NE3.2 kmh NE 2.0 mph3.2 kmh 29.51 in999.3 mb 0.00 in0.0 mm 0.00 in/hr0.0 mm/hr 0.00 in0.0 mm
06:45 AM 37.9°F3.3°C 35.2°F1.8°C 90% 2.0 mph NE3.2 kmh NE 3.0 mph4.8 kmh 29.50 in999.0 mb 0.00 in0.0 mm 0.00 in/hr0.0 mm/hr 0.00 in0.0 mm
07:00 AM 37.9°F3.3°C 35.5°F1.9°C 91% Calm Calm 2.0 mph3.2 kmh 29.49 in998.6 mb 0.00 in0.0 mm 0.00 in/hr0.0 mm/hr 0.00 in0.0 mm
07:15 AM 38.1°F3.4°C 36.0°F2.2°C 92% Calm Calm 2.0 mph3.2 kmh 29.49 in998.6 mb 0.00 in0.0 mm 0.00 in/hr0.0 mm/hr 0.00 in0.0 mm
07:30 AM 38.2°F3.4°C 36.1°F2.3°C 92% Calm Calm 1.0 mph1.6 kmh 29.49 in998.6 mb 0.00 in0.0 mm 0.00 in/hr0.0 mm/hr 0.00 in0.0 mm
07:45 AM 38.2°F3.4°C 36.1°F2.3°C 92% Calm Calm 2.0 mph3.2 kmh 29.48 in998.3 mb 0.00 in0.0 mm 0.00 in/hr0.0 mm/hr 0.00 in0.0 mm
08:00 AM 38.2°F3.4°C 36.1°F2.3°C 92% Calm Calm 1.0 mph1.6 kmh 29.48 in998.3 mb 0.00 in0.0 mm 0.00 in/hr0.0 mm/hr 0.00 in0.0 mm
08:30 AM 38.1°F3.4°C 36.0°F2.2°C 92% 1.0 mph ENE1.6 kmh ENE 2.0 mph3.2 kmh 29.48 in998.3 mb 0.00 in0.0 mm 0.00 in/hr0.0 mm/hr 0.00 in0.0 mm
08:45 AM 38.1°F3.4°C 36.3°F2.4°C 93% Calm Calm 2.0 mph3.2 kmh 29.47 in998.0 mb 0.00 in0.0 mm 0.00 in/hr0.0 mm/hr 0.00 in0.0 mm
09:01 AM 38.2°F3.4°C 36.4°F2.4°C 93% 1.0 mph NNW1.6 kmh NNW 4.0 mph6.4 kmh 29.47 in998.0 mb 0.00 in0.0 mm 0.00 in/hr0.0 mm/hr 0.00 in0.0 mm
09:15 AM 38.2°F3.4°C 36.4°F2.4°C 93% 1.0 mph NNW1.6 kmh NNW 2.0 mph3.2 kmh 29.47 in998.0 mb 0.00 in0.0 mm 0.00 in/hr0.0 mm/hr 0.00 in0.0 mm
09:30 AM 38.2°F3.4°C 36.4°F2.4°C 93% 2.0 mph NE3.2 kmh NE 3.0 mph4.8 kmh 29.47 in998.0 mb 0.00 in0.0 mm 0.00 in/hr0.0 mm/hr 0.00 in0.0 mm
09:45 AM 38.3°F3.5°C 36.5°F2.5°C 93% Calm Calm 2.0 mph3.2 kmh 29.46 in997.6 mb 0.00 in0.0 mm 0.00 in/hr0.0 mm/hr 0.00 in0.0 mm
10:00 AM 38.3°F3.5°C 36.5°F2.5°C 93% Calm Calm 2.0 mph3.2 kmh 29.45 in997.3 mb 0.00 in0.0 mm 0.00 in/hr0.0 mm/hr 0.00 in0.0 mm
10:15 AM 38.4°F3.6°C 36.6°F2.6°C 93% Calm Calm 3.0 mph4.8 kmh 29.45 in997.3 mb 0.00 in0.0 mm 0.00 in/hr0.0 mm/hr 0.00 in0.0 mm
10:30 AM 38.3°F3.5°C 36.5°F2.5°C 93% Calm Calm 2.0 mph3.2 kmh 29.44 in997.0 mb 0.00 in0.0 mm 0.00 in/hr0.0 mm/hr 0.00 in0.0 mm
10:45 AM 38.4°F3.6°C 36.6°F2.6°C 93% 3.0 mph NE4.8 kmh NE 4.0 mph6.4 kmh 29.43 in996.6 mb 0.00 in0.0 mm 0.00 in/hr0.0 mm/hr 0.00 in0.0 mm
11:01 AM 38.5°F3.6°C 36.7°F2.6°C 93% 1.0 mph NW1.6 kmh NW 4.0 mph6.4 kmh 29.43 in996.6 mb 0.00 in0.0 mm 0.00 in/hr0.0 mm/hr 0.00 in0.0 mm
11:15 AM 38.5°F3.6°C 36.9°F2.7°C 94% 1.0 mph N1.6 kmh N 5.0 mph8.0 kmh 29.42 in996.3 mb 0.00 in0.0 mm 0.00 in/hr0.0 mm/hr 0.00 in0.0 mm
11:30 AM 38.3°F3.5°C 36.5°F2.5°C 93% 2.0 mph NNW3.2 kmh NNW 5.0 mph8.0 kmh 29.41 in995.9 mb 0.00 in0.0 mm 0.00 in/hr0.0 mm/hr 0.00 in0.0 mm
11:45 AM 38.0°F3.3°C 36.4°F2.4°C 94% 1.0 mph SE1.6 kmh SE 4.0 mph6.4 kmh 29.41 in995.9 mb 0.00 in0.0 mm 0.00 in/hr0.0 mm/hr 0.00 in0.0 mm
12:01 PM 37.9°F3.3°C 36.3°F2.4°C 94% Calm Calm 3.0 mph4.8 kmh 29.40 in995.6 mb 0.00 in0.0 mm 0.00 in/hr0.0 mm/hr 0.00 in0.0 mm
12:15 PM 37.7°F3.2°C 35.9°F2.2°C 93% 3.0 mph ENE4.8 kmh ENE 5.0 mph8.0 kmh 29.39 in995.3 mb 0.00 in0.0 mm 0.00 in/hr0.0 mm/hr 0.00 in0.0 mm
12:30 PM 37.6°F3.1°C 36.0°F2.2°C 94% 2.0 mph N3.2 kmh N 5.0 mph8.0 kmh 29.38 in994.9 mb 0.00 in0.0 mm 0.00 in/hr0.0 mm/hr 0.00 in0.0 mm
12:45 PM 37.4°F3.0°C 35.8°F2.1°C 94% 2.0 mph NE3.2 kmh NE 3.0 mph4.8 kmh 29.37 in994.6 mb 0.01 in0.3 mm 0.04 in/hr1.0 mm/hr 0.01 in0.3 mm
01:01 PM 37.4°F3.0°C 35.8°F2.1°C 94% 2.0 mph E3.2 kmh E 4.0 mph6.4 kmh 29.37 in994.6 mb 0.01 in0.3 mm 0.00 in/hr0.0 mm/hr 0.01 in0.3 mm
01:15 PM 37.1°F2.8°C 35.5°F1.9°C 94% 1.0 mph NE1.6 kmh NE 4.0 mph6.4 kmh 29.36 in994.2 mb 0.01 in0.3 mm 0.00 in/hr0.0 mm/hr 0.01 in0.3 mm
01:30 PM 36.6°F2.6°C 35.0°F1.7°C 94% 1.0 mph N1.6 kmh N 5.0 mph8.0 kmh 29.35 in993.9 mb 0.01 in0.3 mm 0.00 in/hr0.0 mm/hr 0.01 in0.3 mm
01:45 PM 36.4°F2.4°C 34.8°F1.6°C 94% 1.0 mph NE1.6 kmh NE 8.0 mph12.9 kmh 29.35 in993.9 mb 0.01 in0.3 mm 0.00 in/hr0.0 mm/hr 0.01 in0.3 mm
02:01 PM 36.2°F2.3°C 34.6°F1.4°C 94% 1.0 mph NNE1.6 kmh NNE 5.0 mph8.0 kmh 29.34 in993.6 mb 0.01 in0.3 mm 0.00 in/hr0.0 mm/hr 0.01 in0.3 mm
02:15 PM 36.0°F2.2°C 34.4°F1.3°C 94% 3.0 mph NE4.8 kmh NE 5.0 mph8.0 kmh 29.34 in993.6 mb 0.01 in0.3 mm 0.00 in/hr0.0 mm/hr 0.01 in0.3 mm
02:30 PM 36.0°F2.2°C 34.4°F1.3°C 94% 1.0 mph NE1.6 kmh NE 2.0 mph3.2 kmh 29.34 in993.6 mb 0.02 in0.5 mm 0.04 in/hr1.0 mm/hr 0.02 in0.5 mm
02:45 PM 36.0°F2.2°C 34.4°F1.3°C 94% 2.0 mph N3.2 kmh N 5.0 mph8.0 kmh 29.34 in993.6 mb 0.02 in0.5 mm 0.00 in/hr0.0 mm/hr 0.02 in0.5 mm
03:01 PM 35.5°F1.9°C 34.0°F1.1°C 94% 1.0 mph N1.6 kmh N 3.0 mph4.8 kmh 29.34 in993.6 mb 0.01 in0.3 mm 0.00 in/hr0.0 mm/hr 0.02 in0.5 mm
03:15 PM 34.9°F1.6°C 33.4°F0.8°C 94% 1.0 mph N1.6 kmh N 4.0 mph6.4 kmh 29.33 in993.2 mb 0.02 in0.5 mm 0.04 in/hr1.0 mm/hr 0.03 in0.8 mm
03:30 PM 34.1°F1.2°C 32.6°F0.3°C 94% Calm Calm 4.0 mph6.4 kmh 29.33 in993.2 mb 0.02 in0.5 mm 0.00 in/hr0.0 mm/hr 0.03 in0.8 mm
03:45 PM 33.9°F1.1°C 32.6°F0.3°C 95% 1.0 mph NNW1.6 kmh NNW 3.0 mph4.8 kmh 29.33 in993.2 mb 0.01 in0.3 mm 0.00 in/hr0.0 mm/hr 0.03 in0.8 mm
04:01 PM 33.6°F0.9°C 32.3°F0.2°C 95% 2.0 mph NNE3.2 kmh NNE 4.0 mph6.4 kmh 29.33 in993.2 mb 0.01 in0.3 mm 0.00 in/hr0.0 mm/hr 0.03 in0.8 mm
04:15 PM 33.4°F0.8°C 32.1°F0.1°C 95% 1.0 mph NNW1.6 kmh NNW 3.0 mph4.8 kmh 29.33 in993.2 mb 0.02 in0.5 mm 0.04 in/hr1.0 mm/hr 0.04 in1.0 mm
04:30 PM 33.3°F0.7°C 32.0°F0.0°C 95% 1.0 mph NNW1.6 kmh NNW 3.0 mph4.8 kmh 29.33 in993.2 mb 0.03 in0.8 mm 0.04 in/hr1.0 mm/hr 0.05 in1.3 mm
04:45 PM 33.3°F0.7°C 32.0°F0.0°C 95% 2.0 mph N3.2 kmh N 4.0 mph6.4 kmh 29.33 in993.2 mb 0.02 in0.5 mm 0.00 in/hr0.0 mm/hr 0.05 in1.3 mm
05:01 PM 33.4°F0.8°C 32.1°F0.1°C 95% 3.0 mph N4.8 kmh N 4.0 mph6.4 kmh 29.33 in993.2 mb 0.03 in0.8 mm 0.01 in/hr0.3 mm/hr 0.06 in1.5 mm
05:15 PM 33.3°F0.7°C 32.0°F0.0°C 95% Calm Calm 3.0 mph4.8 kmh 29.33 in993.2 mb 0.04 in1.0 mm 0.04 in/hr1.0 mm/hr 0.07 in1.8 mm
05:31 PM 33.2°F0.7°C 31.9°F-0.1°C 95% 1.0 mph N1.6 kmh N 4.0 mph6.4 kmh 29.33 in993.2 mb 0.04 in1.0 mm 0.00 in/hr0.0 mm/hr 0.07 in1.8 mm
05:45 PM 33.1°F0.6°C 31.8°F-0.1°C 95% 1.0 mph N1.6 kmh N 5.0 mph8.0 kmh 29.33 in993.2 mb 0.04 in1.0 mm 0.00 in/hr0.0 mm/hr 0.07 in1.8 mm
06:01 PM 33.0°F0.6°C 31.7°F-0.2°C 95% 1.0 mph N1.6 kmh N 4.0 mph6.4 kmh 29.33 in993.2 mb 0.03 in0.8 mm 0.00 in/hr0.0 mm/hr 0.07 in1.8 mm
06:15 PM 33.0°F0.6°C 32.0°F0.0°C 96% 2.0 mph NNW3.2 kmh NNW 4.0 mph6.4 kmh 29.33 in993.2 mb 0.03 in0.8 mm 0.00 in/hr0.0 mm/hr 0.07 in1.8 mm
06:31 PM 32.9°F0.5°C 31.6°F-0.2°C 95% 3.0 mph N4.8 kmh N 4.0 mph6.4 kmh 29.33 in993.2 mb 0.00 in0.0 mm 0.00 in/hr0.0 mm/hr 0.07 in1.8 mm
06:45 PM 32.8°F0.4°C 31.5°F-0.3°C 95% 2.0 mph N3.2 kmh N 5.0 mph8.0 kmh 29.33 in993.2 mb 0.00 in0.0 mm 0.00 in/hr0.0 mm/hr 0.07 in1.8 mm
07:02 PM 32.8°F0.4°C 31.5°F-0.3°C 95% Calm Calm 3.0 mph4.8 kmh 29.33 in993.2 mb 0.00 in0.0 mm 0.00 in/hr0.0 mm/hr 0.07 in1.8 mm
07:15 PM 32.7°F0.4°C 31.4°F-0.3°C 95% 3.0 mph N4.8 kmh N 5.0 mph8.0 kmh 29.33 in993.2 mb 0.01 in0.3 mm 0.05 in/hr1.3 mm/hr 0.08 in2.0 mm
07:31 PM 32.6°F0.3°C 31.3°F-0.4°C 95% 1.0 mph NNW1.6 kmh NNW 4.0 mph6.4 kmh 29.33 in993.2 mb 0.01 in0.3 mm 0.00 in/hr0.0 mm/hr 0.08 in2.0 mm
07:45 PM 32.7°F0.4°C 31.4°F-0.3°C 95% 3.0 mph NNW4.8 kmh NNW 3.0 mph4.8 kmh 29.33 in993.2 mb 0.01 in0.3 mm 0.00 in/hr0.0 mm/hr 0.08 in2.0 mm
08:01 PM 32.6°F0.3°C 31.6°F-0.2°C 96% 2.0 mph NW3.2 kmh NW 2.0 mph3.2 kmh 29.33 in993.2 mb 0.01 in0.3 mm 0.00 in/hr0.0 mm/hr 0.08 in2.0 mm
08:15 PM 32.5°F0.3°C 31.2°F-0.4°C 95% 2.0 mph NW3.2 kmh NW 3.0 mph4.8 kmh 29.33 in993.2 mb 0.01 in0.3 mm 0.00 in/hr0.0 mm/hr 0.08 in2.0 mm
08:30 PM 32.4°F0.2°C 31.4°F-0.3°C 96% Calm Calm 5.0 mph8.0 kmh 29.33 in993.2 mb 0.02 in0.5 mm 0.04 in/hr1.0 mm/hr 0.09 in2.3 mm
08:45 PM 32.4°F0.2°C 31.4°F-0.3°C 96% 2.0 mph NNW3.2 kmh NNW 4.0 mph6.4 kmh 29.33 in993.2 mb 0.01 in0.3 mm 0.00 in/hr0.0 mm/hr 0.09 in2.3 mm
09:01 PM 32.2°F0.1°C 31.2°F-0.4°C 96% 2.0 mph N3.2 kmh N 4.0 mph6.4 kmh 29.33 in993.2 mb 0.01 in0.3 mm 0.00 in/hr0.0 mm/hr 0.09 in2.3 mm
09:15 PM 32.1°F0.1°C 31.1°F-0.5°C 96% 2.0 mph NW3.2 kmh NW 3.0 mph4.8 kmh 29.33 in993.2 mb 0.01 in0.3 mm 0.00 in/hr0.0 mm/hr 0.09 in2.3 mm
09:30 PM 31.9°F-0.1°C 30.9°F-0.6°C 96% 2.0 mph NW3.2 kmh NW 3.0 mph4.8 kmh 29.33 in993.2 mb 0.01 in0.3 mm 0.00 in/hr0.0 mm/hr 0.09 in2.3 mm
09:45 PM 31.8°F-0.1°C 30.8°F-0.7°C 96% Calm Calm 3.0 mph4.8 kmh 29.33 in993.2 mb 0.00 in0.0 mm 0.00 in/hr0.0 mm/hr 0.09 in2.3 mm
10:01 PM 31.6°F-0.2°C 30.6°F-0.8°C 96% 1.0 mph NW1.6 kmh NW 4.0 mph6.4 kmh 29.33 in993.2 mb 0.00 in0.0 mm 0.00 in/hr0.0 mm/hr 0.09 in2.3 mm
10:15 PM 31.5°F-0.3°C 30.5°F-0.8°C 96% 1.0 mph NNW1.6 kmh NNW 3.0 mph4.8 kmh 29.32 in992.9 mb 0.00 in0.0 mm 0.00 in/hr0.0 mm/hr 0.09 in2.3 mm
10:30 PM 31.4°F-0.3°C 30.4°F-0.9°C 96% 1.0 mph NW1.6 kmh NW 3.0 mph4.8 kmh 29.32 in992.9 mb 0.00 in0.0 mm 0.00 in/hr0.0 mm/hr 0.09 in2.3 mm
10:45 PM 31.4°F-0.3°C 30.4°F-0.9°C 96% 2.0 mph NW3.2 kmh NW 4.0 mph6.4 kmh 29.32 in992.9 mb 0.00 in0.0 mm 0.00 in/hr0.0 mm/hr 0.09 in2.3 mm
11:01 PM 31.1°F-0.5°C 29.8°F-1.2°C 95% 1.0 mph NNW1.6 kmh NNW 2.0 mph3.2 kmh 29.32 in992.9 mb 0.01 in0.3 mm 0.01 in/hr0.3 mm/hr 0.10 in2.5 mm
11:15 PM 31.0°F-0.6°C 29.7°F-1.3°C 95% 3.0 mph NNE4.8 kmh NNE 5.0 mph8.0 kmh 29.31 in992.6 mb 0.01 in0.3 mm 0.00 in/hr0.0 mm/hr 0.10 in2.5 mm
11:30 PM 30.7°F-0.7°C 29.4°F-1.4°C 95% 2.0 mph NNW3.2 kmh NNW 3.0 mph4.8 kmh 29.31 in992.6 mb 0.01 in0.3 mm 0.00 in/hr0.0 mm/hr 0.10 in2.5 mm
11:45 PM 30.6°F-0.8°C 29.3°F-1.5°C 95% 2.0 mph NW3.2 kmh NW 4.0 mph6.4 kmh 29.30 in992.2 mb 0.02 in0.5 mm 0.04 in/hr1.0 mm/hr 0.11 in2.8 mm